METAR Data
IDs: Format: Raw Decoded Include TAF

Data at: 0140 UTC 29 Nov 2020

KGOO 290135Z AUTO 02004KT 10SM CLR 08/M01 A3019 RMK A01
KGOO 290115Z AUTO 02004KT 10SM CLR 08/M01 A3019 RMK A01
KGOO 290055Z AUTO 35003KT 10SM CLR 09/M00 A3020 RMK A01
KGOO 290030Z AUTO 00000KT 10SM CLR 11/M01 A3020 RMK A01
KGOO 290015Z AUTO 32004KT 10SM CLR 11/M02 A3020 RMK A01
KGOO 282355Z AUTO 31004KT 10SM CLR 12/M02 A3019 RMK A01
KGOO 282335Z AUTO 31004KT 10SM CLR 13/M01 A3019 RMK A01
KGOO 282315Z AUTO 30005KT 10SM CLR 13/M01 A3020 RMK A01
KGOO 282255Z AUTO 29004KT 10SM CLR 13/M01 A3020 RMK A01
KGOO 282235Z AUTO 30006KT 10SM CLR 14/M01 A3020 RMK A01
KGOO 282215Z AUTO 30006KT 10SM CLR 14/M02 A3020 RMK A01
KGOO 282155Z AUTO 00000KT 10SM CLR 15/M03 A3020 RMK A01
KGOO 282135Z AUTO 28003KT 10SM CLR 14/M05 A3021 RMK A01
KGOO 282110Z AUTO 31004KT 10SM CLR 14/M06 A3022 RMK A01
KGOO 282055Z AUTO 30004KT 10SM CLR 14/M05 A3022 RMK A01
KGOO 282035Z AUTO 28004KT 10SM CLR 14/M04 A3023 RMK A01
KGOO 282015Z AUTO 00000KT 10SM CLR 15/M07 A3024 RMK A01
KGOO 281955Z AUTO 00000KT 10SM CLR 14/M04 A3024 RMK A01
KGOO 281935Z AUTO 00000KT 10SM CLR 13/M04 A3025 RMK A01
KGOO 281915Z AUTO 00000KT 10SM CLR 14/M07 A3026 RMK A01
KGOO 281855Z AUTO 00000KT 10SM CLR 13/M09 A3027 RMK A01
KGOO 281835Z AUTO 00000KT 10SM CLR 13/M06 A3027 RMK A01
KGOO 281815Z AUTO VRB03KT 10SM CLR 13/M05 A3028 RMK A01
KGOO 281755Z AUTO 00000KT 10SM CLR 13/M06 A3029 RMK A01
KGOO 281735Z AUTO 00000KT 10SM CLR 12/M07 A3028 RMK A01
KGOO 281715Z AUTO 00000KT 10SM CLR 12/M06 A3028 RMK A01
KGOO 281655Z AUTO 00000KT 10SM CLR 11/M06 A3028 RMK A01
KGOO 281635Z AUTO 00000KT 10SM CLR 09/M05 A3028 RMK A01
KGOO 281615Z AUTO 00000KT 10SM CLR 09/M07 A3027 RMK A01
KGOO 281555Z AUTO 00000KT 10SM CLR 07/M06 A3027 RMK A01
KGOO 281535Z AUTO 00000KT 10SM CLR 06/M05 A3026 RMK A01
KGOO 281515Z AUTO 00000KT 10SM CLR 08/M06 A3026 RMK A01
KGOO 281455Z AUTO 11003KT 10SM CLR 09/M06 A3025 RMK A01
KGOO 281435Z AUTO 12004KT 10SM CLR 08/M05 A3025 RMK A01
KGOO 281415Z AUTO 13005KT 10SM CLR 07/M04 A3024 RMK A01
KGOO 281355Z AUTO 12005KT 10SM CLR 08/M05 A3024 RMK A01
KGOO 281330Z AUTO 11004KT 10SM CLR 06/M04 A3025 RMK A01
KGOO 281315Z AUTO 11003KT 10SM CLR 06/M04 A3025 RMK A01
KGOO 281255Z AUTO 04003KT 10SM CLR 04/M02 A3025 RMK A01
KGOO 281235Z AUTO 00000KT 10SM CLR 05/M03 A3025 RMK A01
KGOO 281215Z AUTO 00000KT 10SM CLR 04/M03 A3024 RMK A01
KGOO 281155Z AUTO 00000KT 10SM CLR 05/M03 A3024 RMK A01
KGOO 281135Z AUTO 00000KT 10SM CLR 06/M04 A3024 RMK A01
KGOO 281115Z AUTO 00000KT 10SM CLR 07/M04 A3024 RMK A01
KGOO 281055Z AUTO 00000KT 10SM CLR 06/M03 A3025 RMK A01
KGOO 281035Z AUTO 00000KT 10SM CLR 06/M03 A3024 RMK A01
KGOO 281015Z AUTO 00000KT 10SM CLR 07/M03 A3024 RMK A01
KGOO 280955Z AUTO 00000KT 10SM CLR 07/M03 A3024 RMK A01
KGOO 280935Z AUTO 11004KT 10SM CLR 08/M03 A3024 RMK A01
KGOO 280915Z AUTO 12004KT 10SM CLR 07/M02 A3025 RMK A01
KGOO 280855Z AUTO 00000KT 10SM CLR 07/M02 A3025 RMK A01
KGOO 280835Z AUTO 10004KT 10SM CLR 07/M02 A3025 RMK A01
KGOO 280815Z AUTO 00000KT 10SM CLR 06/M01 A3026 RMK A01
KGOO 280755Z AUTO 11004KT 10SM CLR 07/M01 A3026 RMK A01
KGOO 280735Z AUTO 11004KT 10SM CLR 08/M01 A3026 RMK A01
KGOO 280715Z AUTO 10004KT 10SM CLR 07/M01 A3026 RMK A01
KGOO 280655Z AUTO 10004KT 10SM CLR 06/M01 A3026 RMK A01
KGOO 280635Z AUTO 00000KT 10SM CLR 07/M01 A3025 RMK A01
KGOO 280615Z AUTO 00000KT 10SM CLR 07/M01 A3025 RMK A01
KGOO 280555Z AUTO 00000KT 10SM CLR 07/M01 A3025 RMK A01
KGOO 280535Z AUTO 00000KT 10SM CLR 07/M01 A3025 RMK A01
KGOO 280515Z AUTO 00000KT 10SM CLR 07/M00 A3024 RMK A01
KGOO 280455Z AUTO 00000KT 10SM CLR 08/M00 A3024 RMK A01
KGOO 280435Z AUTO 09005KT 10SM CLR 06/00 A3023 RMK A01
KGOO 280415Z AUTO 09005KT 10SM CLR 07/00 A3023 RMK A01
KGOO 280355Z AUTO 12003KT 10SM CLR 07/00 A3023 RMK A01
KGOO 280335Z AUTO 12003KT 10SM CLR 07/M00 A3023 RMK A01
KGOO 280315Z AUTO 13003KT 10SM CLR 07/M00 A3022 RMK A01
KGOO 280255Z AUTO 13003KT 10SM CLR 07/00 A3022 RMK A01
KGOO 280230Z AUTO 00000KT 10SM CLR 07/M00 A3021 RMK A01
KGOO 280215Z AUTO 00000KT 10SM CLR 07/M00 A3021 RMK A01
KGOO 280155Z AUTO 00000KT 10SM CLR 07/00 A3020 RMK A01
KGOO 280135Z AUTO 00000KT 10SM CLR 07/01 A3021 RMK A01
KGOO 280115Z AUTO 00000KT 10SM CLR 07/01 A3020 RMK A01
KGOO 280055Z AUTO 00000KT 10SM CLR 09/01 A3020 RMK A01
KGOO 280035Z AUTO 00000KT 10SM CLR 09/01 A3020 RMK A01
KGOO 280015Z AUTO 00000KT 10SM CLR 10/M00 A3019 RMK A01
KGOO 272355Z AUTO 00000KT 10SM CLR 11/M01 A3019 RMK A01
KGOO 272335Z AUTO 00000KT 10SM CLR 12/M01 A3019 RMK A01
KGOO 272315Z AUTO VRB03KT 10SM CLR 12/M01 A3019 RMK A01
KGOO 272255Z AUTO VRB04KT 10SM CLR 12/M01 A3018 RMK A01
KGOO 272235Z AUTO VRB04KT 10SM CLR 12/M01 A3018 RMK A01
KGOO 272215Z AUTO VRB03KT 10SM CLR 12/M02 A3018 RMK A01
KGOO 272155Z AUTO 00000KT 10SM CLR 12/M02 A3018 RMK A01
KGOO 272135Z AUTO 00000KT 10SM CLR 12/M02 A3019 RMK A01
KGOO 272110Z AUTO 00000KT 10SM CLR 12/M02 A3019 RMK A01
KGOO 272055Z AUTO VRB04KT 10SM CLR 11/M02 A3019 RMK A01
KGOO 272035Z AUTO 00000KT 10SM CLR 12/M02 A3020 RMK A01
KGOO 272015Z AUTO 23004KT 10SM CLR 11/M02 A3020 RMK A01
KGOO 271955Z AUTO 29003KT 10SM CLR 11/M03 A3021 RMK A01
KGOO 271935Z AUTO 28004KT 10SM CLR 11/M03 A3021 RMK A01
KGOO 271915Z AUTO 00000KT 10SM CLR 10/M03 A3022 RMK A01
KGOO 271855Z AUTO 29004KT 10SM CLR 10/M03 A3023 RMK A01
KGOO 271835Z AUTO 00000KT 10SM CLR 09/M03 A3023 RMK A01
KGOO 271815Z AUTO 00000KT 10SM CLR 09/M04 A3023 RMK A01
KGOO 271755Z AUTO 00000KT 10SM CLR 09/M04 A3023 RMK A01
KGOO 271735Z AUTO 00000KT 10SM CLR 09/M04 A3023 RMK A01
KGOO 271715Z AUTO 00000KT 10SM CLR 08/M04 A3023 RMK A01
KGOO 271655Z AUTO 00000KT 10SM CLR 08/M04 A3022 RMK A01
KGOO 271635Z AUTO 00000KT 10SM CLR 08/M04 A3022 RMK A01
KGOO 271615Z AUTO 00000KT 10SM CLR 07/M04 A3021 RMK A01
KGOO 271555Z AUTO 00000KT 10SM CLR 06/M05 A3021 RMK A01
KGOO 271530Z AUTO 00000KT 10SM CLR 05/M07 A3021 RMK A01
KGOO 271515Z AUTO 00000KT 10SM CLR 05/M08 A3020 RMK A01
KGOO 271455Z AUTO 00000KT 10SM CLR 05/M09 A3020 RMK A01
KGOO 271435Z AUTO 00000KT 10SM CLR 04/M09 A3020 RMK A01
KGOO 271415Z AUTO 00000KT 10SM CLR 03/M07 A3019 RMK A01
KGOO 271355Z AUTO 33003KT 10SM CLR 05/M09 A3019 RMK A01